Time;durP1;ratioP1;P1;durP2;ratioP2;P2;SDS_P1;SDS_P2;PMS_P1;PMS_P2;Temp;Humidity;BMP_temperature;BMP_pressure;BME280_temperature;BME280_humidity;BME280_pressure;Samples;Min_cycle;Max_cycle;Signal;HPM_P1;HPM_P2
2022/12/24 00:01:41;;;;;;;26.25;14.23;;;6.40;99.90;;;;;;5115427;27;20156;-81
2022/12/24 00:04:07;;;;;;;28.00;14.43;;;6.40;99.90;;;;;;5107943;28;20043;-80
2022/12/24 00:06:33;;;;;;;27.60;14.55;;;6.30;99.90;;;;;;5108801;28;20088;-82
2022/12/24 00:08:58;;;;;;;26.88;13.77;;;6.40;99.90;;;;;;5111278;28;20035;-81
2022/12/24 00:11:24;;;;;;;24.25;13.40;;;6.40;99.90;;;;;;5114939;27;20126;-81
2022/12/24 00:13:49;;;;;;;23.60;12.82;;;6.30;99.90;;;;;;5111308;27;20582;-81
2022/12/24 00:16:15;;;;;;;23.83;13.20;;;6.30;99.90;;;;;;5106516;27;20439;-81
2022/12/24 00:18:40;;;;;;;27.15;13.43;;;6.40;99.90;;;;;;5114963;28;20096;-81
2022/12/24 00:21:07;;;;;;;25.30;13.70;;;6.30;99.90;;;;;;5107659;28;20520;-81
2022/12/24 00:23:32;;;;;;;23.77;12.95;;;6.30;99.90;;;;;;5129939;28;20036;-80
2022/12/24 00:25:58;;;;;;;26.25;13.45;;;6.30;99.90;;;;;;5109727;28;20133;-82
2022/12/24 00:28:23;;;;;;;24.52;12.73;;;6.30;99.90;;;;;;5107858;28;20050;-82
2022/12/24 00:30:49;;;;;;;23.95;13.55;;;6.30;99.90;;;;;;5091373;28;20366;-82
2022/12/24 00:33:14;;;;;;;27.17;14.18;;;6.30;99.90;;;;;;5112335;28;20046;-81
2022/12/24 00:35:40;;;;;;;25.50;13.48;;;6.30;99.90;;;;;;5102859;28;20131;-82
2022/12/24 00:38:07;;;;;;;24.17;13.15;;;6.30;99.90;;;;;;5128381;28;20046;-82
2022/12/24 00:40:33;;;;;;;25.17;13.23;;;6.30;99.90;;;;;;5124451;28;20398;-81
2022/12/24 00:42:58;;;;;;;25.20;13.35;;;6.30;99.90;;;;;;5108026;28;20134;-82
2022/12/24 00:45:26;;;;;;;25.20;13.65;;;6.30;99.90;;;;;;5129665;28;20065;-81
2022/12/24 00:47:52;;;;;;;26.75;13.63;;;6.30;99.90;;;;;;5105894;28;20449;-82
2022/12/24 00:50:18;;;;;;;26.15;13.38;;;6.30;99.90;;;;;;5100939;28;20096;-82
2022/12/24 00:52:43;;;;;;;25.67;13.02;;;6.30;99.90;;;;;;5111343;28;20143;-82
2022/12/24 00:55:09;;;;;;;27.40;13.07;;;6.30;99.90;;;;;;5102002;28;20048;-82
2022/12/24 00:57:34;;;;;;;26.77;13.15;;;6.30;99.90;;;;;;5109007;28;20493;-81
2022/12/24 01:00:00;;;;;;;23.05;12.75;;;6.30;99.90;;;;;;5119435;28;20051;-81
2022/12/24 01:02:25;;;;;;;23.30;12.73;;;6.30;99.90;;;;;;5105350;28;20126;-82
2022/12/24 01:05:09;;;;;;;25.13;12.90;;;6.30;99.90;;;;;;5124152;28;20035;-82
2022/12/24 01:07:36;;;;;;;23.40;13.13;;;6.30;99.90;;;;;;5107613;28;20058;-82
2022/12/24 01:10:03;;;;;;;24.88;13.88;;;6.30;99.90;;;;;;5113451;28;20047;-82
2022/12/24 01:12:29;;;;;;;23.63;13.10;;;6.30;99.90;;;;;;5112767;28;20036;-82
2022/12/24 01:14:54;;;;;;;25.17;12.93;;;6.30;99.90;;;;;;5128008;28;20088;-82
2022/12/24 01:17:20;;;;;;;24.27;12.63;;;6.40;99.90;;;;;;5099816;27;20088;-82
2022/12/24 01:19:46;;;;;;;27.08;13.93;;;6.30;99.90;;;;;;5106657;28;20066;-82
2022/12/24 01:22:11;;;;;;;26.20;12.68;;;6.40;99.90;;;;;;5106786;27;20066;-82
2022/12/24 01:24:39;;;;;;;24.60;13.23;;;6.30;99.90;;;;;;5110514;27;20050;-82
2022/12/24 01:27:04;;;;;;;25.17;13.20;;;6.30;99.90;;;;;;5114057;28;20473;-80
2022/12/24 01:29:30;;;;;;;24.38;12.45;;;6.30;99.90;;;;;;5109298;27;20099;-82
2022/12/24 01:31:56;;;;;;;27.92;14.32;;;6.40;99.90;;;;;;5113031;27;20515;-82
2022/12/24 01:34:21;;;;;;;27.38;13.20;;;6.40;99.90;;;;;;5126750;27;20095;-83
2022/12/24 01:36:47;;;;;;;25.85;12.90;;;6.40;99.90;;;;;;5129200;27;20047;-82
2022/12/24 01:39:12;;;;;;;24.98;13.13;;;6.40;99.90;;;;;;5108027;27;20101;-82
2022/12/24 01:44:30;;;;;;;27.08;14.02;;;6.40;99.90;;;;;;5125284;27;20062;-82
2022/12/24 01:47:19;;;;;;;26.20;13.43;;;6.30;99.90;;;;;;5108499;27;20485;-82
2022/12/24 01:49:55;;;;;;;24.90;13.43;;;6.40;99.90;;;;;;5116414;27;20031;-81
2022/12/24 01:52:25;;;;;;;27.08;13.57;;;6.30;99.90;;;;;;5105728;27;20442;-82
2022/12/24 01:54:58;;;;;;;27.60;14.63;;;6.40;99.90;;;;;;5109209;27;20054;-82
2022/12/24 01:57:28;;;;;;;28.95;14.68;;;6.40;99.90;;;;;;5132503;27;20621;-82
2022/12/24 01:59:59;;;;;;;28.20;14.30;;;6.40;99.90;;;;;;5100142;28;20489;-82
2022/12/24 02:02:26;;;;;;;28.10;14.90;;;6.40;99.90;;;;;;5113535;27;20058;-83
2022/12/24 02:05:01;;;;;;;27.35;14.57;;;6.40;99.90;;;;;;5110834;28;20071;-83
2022/12/24 02:07:27;;;;;;;31.63;15.80;;;6.40;99.90;;;;;;5112452;27;20035;-82
2022/12/24 02:09:56;;;;;;;26.77;13.88;;;6.40;99.90;;;;;;5118262;27;20393;-82
2022/12/24 02:12:23;;;;;;;27.15;14.52;;;6.40;99.90;;;;;;5115153;27;20689;-82
2022/12/24 02:14:49;;;;;;;37.70;15.80;;;6.40;99.90;;;;;;5114017;27;20047;-82
2022/12/24 02:17:38;;;;;;;33.22;16.67;;;6.40;99.90;;;;;;5109334;27;20057;-82
2022/12/24 02:20:18;;;;;;;33.33;15.35;;;6.40;99.90;;;;;;5125900;27;20462;-82
2022/12/24 02:23:05;;;;;;;31.70;14.77;;;6.40;99.90;;;;;;5101751;27;20112;-82
2022/12/24 02:26:13;;;;;;;28.80;15.13;;;6.40;99.90;;;;;;5103747;27;20114;-82
2022/12/24 02:28:56;;;;;;;33.58;15.43;;;6.40;99.90;;;;;;5121370;27;20034;-82
2022/12/24 02:31:49;;;;;;;28.10;15.03;;;6.40;99.90;;;;;;5107236;27;20082;-82
2022/12/24 02:34:27;;;;;;;30.27;15.07;;;6.40;99.90;;;;;;5129730;27;20289;-82
2022/12/24 02:37:02;;;;;;;30.25;15.27;;;6.40;99.90;;;;;;5113200;27;20035;-82
2022/12/24 02:39:50;;;;;;;30.95;14.18;;;6.40;99.90;;;;;;5098199;27;20040;-82
2022/12/24 02:42:21;;;;;;;30.77;14.85;;;6.40;99.90;;;;;;5105462;27;20051;-82
2022/12/24 02:44:56;;;;;;;32.85;15.35;;;6.40;99.90;;;;;;5110497;27;20035;-82
2022/12/24 02:47:25;;;;;;;31.38;15.27;;;6.50;99.90;;;;;;5105832;28;20036;-82
2022/12/24 02:49:51;;;;;;;29.40;14.57;;;6.40;99.90;;;;;;5111460;27;20046;-83
2022/12/24 02:52:42;;;;;;;31.27;15.00;;;6.40;99.90;;;;;;5125216;27;20040;-83
2022/12/24 02:55:17;;;;;;;28.98;14.63;;;6.40;99.90;;;;;;5119520;27;20039;-83
2022/12/24 02:58:09;;;;;;;32.08;15.70;;;6.40;99.90;;;;;;5129608;27;20515;-83
2022/12/24 03:00:45;;;;;;;28.80;15.85;;;6.50;99.90;;;;;;5108437;27;20118;-83
2022/12/24 03:03:23;;;;;;;30.88;16.48;;;6.60;99.90;;;;;;5127216;27;20121;-83
2022/12/24 03:05:58;;;;;;;31.73;15.40;;;6.60;99.90;;;;;;5123356;27;20031;-82
2022/12/24 03:08:44;;;;;;;28.67;16.08;;;6.60;99.90;;;;;;5112949;27;20446;-83
2022/12/24 03:11:12;;;;;;;29.75;15.60;;;6.80;99.90;;;;;;5107430;27;20064;-83
2022/12/24 03:13:40;;;;;;;30.83;16.10;;;6.90;99.90;;;;;;5132724;27;20472;-83
2022/12/24 03:16:09;;;;;;;26.27;14.15;;;7.00;99.90;;;;;;5134923;27;20039;-83
2022/12/24 03:18:38;;;;;;;28.23;14.70;;;7.10;99.90;;;;;;5108992;27;20506;-83
2022/12/24 03:21:15;;;;;;;29.77;14.20;;;7.20;99.90;;;;;;5110278;28;20046;-82
2022/12/24 03:23:41;;;;;;;32.38;14.50;;;7.40;99.90;;;;;;5125647;27;20035;-83
2022/12/24 03:26:11;;;;;;;25.20;13.25;;;7.40;99.90;;;;;;5110787;27;20039;-82
2022/12/24 03:28:39;;;;;;;27.23;13.65;;;7.50;99.90;;;;;;5107275;27;20051;-82
2022/12/24 03:31:05;;;;;;;24.75;12.48;;;7.60;99.90;;;;;;5099982;28;20048;-80
2022/12/24 03:33:31;;;;;;;24.92;12.40;;;7.60;99.90;;;;;;5112599;27;20035;-82
2022/12/24 03:35:57;;;;;;;25.52;12.63;;;7.70;99.90;;;;;;5115271;27;20042;-81
2022/12/24 03:38:22;;;;;;;24.10;13.57;;;7.60;99.90;;;;;;5127553;27;20415;-83
2022/12/24 03:40:48;;;;;;;24.92;11.38;;;7.70;99.90;;;;;;5130530;27;20043;-82
2022/12/24 03:43:14;;;;;;;30.35;12.10;;;7.60;99.90;;;;;;5114412;27;20027;-82
2022/12/24 03:45:40;;;;;;;27.40;13.23;;;7.60;99.90;;;;;;5115948;27;20112;-81
2022/12/24 03:48:05;;;;;;;27.60;12.48;;;7.60;99.90;;;;;;5124824;27;20043;-81
2022/12/24 03:50:31;;;;;;;26.08;12.18;;;7.70;99.90;;;;;;5118495;27;20579;-82
2022/12/24 03:52:56;;;;;;;25.33;11.75;;;7.70;99.90;;;;;;5115732;27;20035;-83
2022/12/24 03:55:22;;;;;;;23.35;10.73;;;7.70;99.90;;;;;;5134001;27;20076;-82
2022/12/24 03:57:48;;;;;;;25.65;11.13;;;7.70;99.90;;;;;;5105969;28;20042;-81
2022/12/24 04:00:14;;;;;;;26.17;10.05;;;7.80;99.90;;;;;;5113055;27;20498;-81
2022/12/24 04:02:40;;;;;;;35.15;10.73;;;7.80;99.90;;;;;;5128464;27;20503;-82
2022/12/24 04:05:07;;;;;;;28.60;9.85;;;7.80;99.90;;;;;;5107117;27;20035;-81
2022/12/24 04:07:33;;;;;;;34.05;9.30;;;7.90;99.90;;;;;;5105914;28;20046;-82
2022/12/24 04:09:58;;;;;;;32.80;8.85;;;7.90;99.90;;;;;;5131034;27;20043;-82
2022/12/24 04:12:24;;;;;;;35.85;9.30;;;7.90;99.90;;;;;;5111243;27;20046;-82
2022/12/24 04:14:50;;;;;;;33.70;8.20;;;8.00;99.90;;;;;;5133710;27;20112;-83
2022/12/24 04:17:15;;;;;;;33.13;7.70;;;8.00;99.90;;;;;;5131217;27;20036;-83
2022/12/24 04:19:41;;;;;;;39.47;8.18;;;8.00;99.90;;;;;;5125799;27;20027;-82
2022/12/24 04:22:07;;;;;;;31.05;6.68;;;8.00;99.90;;;;;;5120434;28;20031;-82
2022/12/24 04:24:32;;;;;;;38.30;6.22;;;8.00;99.90;;;;;;5114626;28;20118;-82
2022/12/24 04:26:58;;;;;;;29.35;6.20;;;8.00;99.90;;;;;;5111902;28;20051;-82
2022/12/24 04:29:24;;;;;;;38.38;5.63;;;8.00;99.90;;;;;;5110736;28;20088;-82
2022/12/24 04:31:49;;;;;;;29.98;6.32;;;8.00;99.90;;;;;;5131886;28;20035;-82
2022/12/24 04:34:15;;;;;;;34.60;5.25;;;7.90;99.90;;;;;;5114011;28;20036;-81
2022/12/24 04:36:40;;;;;;;30.33;4.75;;;7.90;99.90;;;;;;5112824;28;20396;-80
2022/12/24 04:39:06;;;;;;;32.42;4.90;;;7.80;99.90;;;;;;5102868;28;20065;-82
2022/12/24 04:41:31;;;;;;;31.50;5.28;;;7.80;99.90;;;;;;5108592;28;20023;-82
2022/12/24 04:43:57;;;;;;;31.98;4.82;;;7.80;99.90;;;;;;5115851;28;20050;-80
2022/12/24 04:46:25;;;;;;;31.15;4.43;;;7.80;99.90;;;;;;5126506;28;20107;-82
2022/12/24 04:48:52;;;;;;;32.95;4.82;;;7.70;99.90;;;;;;5109867;28;20047;-81
2022/12/24 04:51:19;;;;;;;33.80;4.70;;;7.80;99.90;;;;;;5110796;27;20071;-83
2022/12/24 04:53:44;;;;;;;36.60;4.72;;;7.80;99.90;;;;;;5125619;27;20555;-83
2022/12/24 04:56:19;;;;;;;33.53;5.00;;;7.70;99.90;;;;;;5119348;27;20118;-82
2022/12/24 04:58:45;;;;;;;34.83;5.07;;;7.70;99.90;;;;;;5136415;27;20408;-83
2022/12/24 05:01:13;;;;;;;31.67;4.90;;;7.80;99.90;;;;;;5133987;27;20039;-82
2022/12/24 05:03:39;;;;;;;34.97;6.00;;;7.80;99.90;;;;;;5132247;27;20043;-83
2022/12/24 05:06:09;;;;;;;42.38;6.07;;;7.80;99.90;;;;;;5114639;27;20039;-82
2022/12/24 05:08:35;;;;;;;31.52;5.18;;;7.80;99.90;;;;;;5109519;27;20043;-83
2022/12/24 05:11:01;;;;;;;28.75;4.82;;;7.80;99.90;;;;;;5111066;27;20043;-83
2022/12/24 05:13:28;;;;;;;38.38;5.40;;;7.80;99.90;;;;;;5116908;27;20118;-82
2022/12/24 05:15:54;;;;;;;30.17;5.00;;;7.80;99.90;;;;;;5126777;27;20035;-82
2022/12/24 05:18:20;;;;;;;33.30;4.82;;;7.80;99.90;;;;;;5134158;27;20083;-84
2022/12/24 05:20:46;;;;;;;32.58;5.00;;;7.80;99.90;;;;;;5127961;27;20035;-83
2022/12/24 05:26:20;;;;;;;32.88;4.80;;;7.80;99.90;;;;;;5105558;27;20043;-83
2022/12/24 05:28:47;;;;;;;38.97;5.03;;;7.80;99.90;;;;;;5130244;27;20152;-83
2022/12/24 05:31:12;;;;;;;28.98;4.50;;;7.80;99.90;;;;;;5129477;27;20035;-83
2022/12/24 05:33:38;;;;;;;38.58;5.68;;;7.80;99.90;;;;;;5111241;27;20039;-84
2022/12/24 05:36:04;;;;;;;32.08;6.28;;;7.80;99.90;;;;;;5128247;27;20114;-83
2022/12/24 05:38:29;;;;;;;32.85;4.43;;;7.90;99.90;;;;;;5106312;27;20103;-84
2022/12/24 05:40:55;;;;;;;34.28;5.10;;;7.90;99.90;;;;;;5104738;28;20053;-81
2022/12/24 05:43:20;;;;;;;32.58;5.10;;;7.80;99.90;;;;;;5113077;27;20071;-84
2022/12/24 05:45:46;;;;;;;36.90;5.32;;;7.90;99.90;;;;;;5112156;27;20067;-83
2022/12/24 05:48:11;;;;;;;39.95;5.95;;;7.90;99.90;;;;;;5132808;27;20170;-83
2022/12/24 05:50:40;;;;;;;44.33;5.55;;;7.90;99.90;;;;;;5115280;27;20050;-82
2022/12/24 05:53:06;;;;;;;33.78;4.75;;;7.90;99.90;;;;;;5116118;27;20411;-82
2022/12/24 05:55:33;;;;;;;35.33;5.00;;;7.90;99.90;;;;;;5129604;27;20107;-82
2022/12/24 05:57:58;;;;;;;39.65;5.32;;;7.90;99.90;;;;;;5121142;27;20119;-83
2022/12/24 06:00:24;;;;;;;39.78;5.22;;;7.90;99.90;;;;;;5115359;27;20552;-82
2022/12/24 06:02:50;;;;;;;27.73;4.88;;;7.90;99.90;;;;;;5095894;27;20071;-82
2022/12/24 06:05:15;;;;;;;34.70;4.90;;;7.90;99.90;;;;;;5104079;27;20100;-83
2022/12/24 06:07:41;;;;;;;34.50;4.28;;;7.90;99.90;;;;;;5111918;27;20051;-83
2022/12/24 06:10:07;;;;;;;43.13;5.25;;;7.90;99.90;;;;;;5114088;27;20069;-82
2022/12/24 06:12:33;;;;;;;37.00;5.80;;;7.90;99.90;;;;;;5109451;27;20043;-82
2022/12/24 06:14:59;;;;;;;40.58;5.03;;;7.90;99.90;;;;;;5121355;27;20085;-83
2022/12/24 06:17:24;;;;;;;39.67;5.47;;;7.90;99.90;;;;;;5133866;27;20461;-82
2022/12/24 06:19:50;;;;;;;44.13;4.82;;;7.90;99.90;;;;;;5111436;27;20039;-83
2022/12/24 06:22:15;;;;;;;44.50;4.70;;;7.90;99.90;;;;;;5124242;27;20046;-83
2022/12/24 06:24:41;;;;;;;34.20;5.22;;;7.90;99.90;;;;;;5115204;27;20412;-83
2022/12/24 06:27:07;;;;;;;35.00;4.68;;;7.90;99.90;;;;;;5117996;27;20118;-82
2022/12/24 06:29:32;;;;;;;34.42;4.78;;;7.90;99.90;;;;;;5111726;28;20078;-83
2022/12/24 06:31:58;;;;;;;39.13;5.57;;;7.90;99.90;;;;;;5128223;27;20043;-83
2022/12/24 06:34:23;;;;;;;39.58;4.40;;;7.90;99.90;;;;;;5096867;27;20041;-80
2022/12/24 06:36:49;;;;;;;38.40;5.25;;;7.90;99.90;;;;;;5106507;28;20116;-83
2022/12/24 06:39:15;;;;;;;35.90;5.10;;;7.90;99.90;;;;;;5113142;27;20413;-82
2022/12/24 06:41:40;;;;;;;32.45;5.68;;;7.90;99.90;;;;;;5102990;27;20572;-82
2022/12/24 06:44:06;;;;;;;33.15;5.10;;;7.90;99.90;;;;;;5097372;27;20549;-83
2022/12/24 06:46:31;;;;;;;32.35;5.07;;;7.90;99.90;;;;;;5120295;27;20442;-82
2022/12/24 06:48:57;;;;;;;39.70;5.60;;;7.80;99.90;;;;;;5107278;27;20408;-83
2022/12/24 06:51:22;;;;;;;35.03;4.82;;;7.80;99.90;;;;;;5105255;27;20063;-83
2022/12/24 06:53:51;;;;;;;41.00;5.20;;;7.80;99.90;;;;;;5104858;28;20381;-83
2022/12/24 06:56:17;;;;;;;32.75;5.80;;;7.80;99.90;;;;;;5108758;27;20523;-84
2022/12/24 06:58:43;;;;;;;31.25;4.38;;;7.70;99.90;;;;;;5108170;27;20122;-83
2022/12/24 07:01:12;;;;;;;30.52;5.03;;;7.70;99.90;;;;;;5106689;27;20074;-82
2022/12/24 07:03:37;;;;;;;34.13;4.93;;;7.70;99.90;;;;;;5114590;27;20047;-83
2022/12/24 07:06:03;;;;;;;33.25;5.15;;;7.60;99.90;;;;;;5134089;27;20031;-83
2022/12/24 07:08:32;;;;;;;33.95;4.63;;;7.70;99.90;;;;;;5113432;27;20067;-83
2022/12/24 07:10:58;;;;;;;34.85;5.22;;;7.70;99.90;;;;;;5135425;27;20043;-82
2022/12/24 07:13:24;;;;;;;43.67;5.18;;;7.70;99.90;;;;;;5125224;27;20047;-81
2022/12/24 07:15:57;;;;;;;37.72;5.15;;;7.70;99.90;;;;;;5096572;28;20032;-84
2022/12/24 07:18:23;;;;;;;32.45;5.70;;;7.70;99.90;;;;;;5111639;27;20055;-82
2022/12/24 07:20:48;;;;;;;41.63;5.82;;;7.70;99.90;;;;;;5107044;28;20043;-82
2022/12/24 07:23:14;;;;;;;34.80;4.78;;;7.80;99.90;;;;;;5097730;27;20489;-81
2022/12/24 07:25:41;;;;;;;30.10;5.40;;;7.80;99.90;;;;;;5112200;27;20098;-83
2022/12/24 07:28:07;;;;;;;27.27;4.70;;;7.80;99.90;;;;;;5104402;27;20039;-83
2022/12/24 07:30:32;;;;;;;41.53;5.97;;;7.80;99.90;;;;;;5123338;27;20096;-78
2022/12/24 07:32:58;;;;;;;36.58;5.07;;;7.90;99.90;;;;;;5126580;27;20035;-82
2022/12/24 07:35:24;;;;;;;42.17;6.30;;;7.90;99.90;;;;;;5125252;27;20074;-79
2022/12/24 07:37:49;;;;;;;37.92;5.15;;;7.90;99.90;;;;;;5101976;27;20104;-83
2022/12/24 07:40:15;;;;;;;38.40;4.97;;;7.90;99.90;;;;;;5107533;27;20049;-81
2022/12/24 07:42:40;;;;;;;29.38;5.30;;;8.00;99.90;;;;;;5101280;27;20421;-83
2022/12/24 07:45:06;;;;;;;34.88;4.93;;;8.00;99.90;;;;;;5125681;27;20615;-80
2022/12/24 07:47:33;;;;;;;38.58;5.50;;;8.00;99.90;;;;;;5130952;27;20035;-83
2022/12/24 07:49:58;;;;;;;33.83;4.80;;;8.00;99.90;;;;;;5107493;27;20039;-81
2022/12/24 07:52:24;;;;;;;37.38;5.53;;;8.00;99.90;;;;;;5104187;27;20039;-83
2022/12/24 07:54:49;;;;;;;43.55;5.65;;;8.00;99.90;;;;;;5105141;27;20118;-82
2022/12/24 07:57:15;;;;;;;35.72;5.00;;;8.00;99.90;;;;;;5101228;27;20042;-82
2022/12/24 07:59:41;;;;;;;32.67;4.90;;;8.10;99.90;;;;;;5098716;27;20390;-83
2022/12/24 08:02:09;;;;;;;37.28;6.07;;;8.10;99.90;;;;;;5103822;27;20039;-83
2022/12/24 08:04:35;;;;;;;40.35;5.28;;;8.10;99.90;;;;;;5118936;27;20077;-83
2022/12/24 08:07:05;;;;;;;44.22;5.43;;;8.10;99.90;;;;;;5116864;27;21359;-84
2022/12/24 08:09:35;;;;;;;41.38;6.78;;;8.10;99.90;;;;;;5105557;27;20067;-83
2022/12/24 08:12:02;;;;;;;37.67;5.97;;;8.10;99.90;;;;;;5101876;27;20385;-82
2022/12/24 08:14:28;;;;;;;34.88;5.97;;;8.20;99.90;;;;;;5095653;27;20047;-83
2022/12/24 08:16:54;;;;;;;35.08;5.20;;;8.20;99.90;;;;;;5100119;28;20082;-81
2022/12/24 08:19:19;;;;;;;28.30;5.05;;;8.20;99.90;;;;;;5123580;27;20074;-83
2022/12/24 08:21:45;;;;;;;42.20;6.10;;;8.20;99.90;;;;;;5105764;28;20043;-82
2022/12/24 08:24:10;;;;;;;35.97;5.72;;;8.20;99.90;;;;;;5109461;28;20046;-81
2022/12/24 08:26:36;;;;;;;38.33;6.32;;;8.20;99.90;;;;;;5115491;28;20047;-80
2022/12/24 08:29:03;;;;;;;35.95;5.60;;;8.20;99.90;;;;;;5103618;28;20126;-82
2022/12/24 08:31:29;;;;;;;35.28;4.57;;;8.20;99.90;;;;;;5110093;27;20047;-82
2022/12/24 08:33:54;;;;;;;35.95;5.55;;;8.20;99.90;;;;;;5146999;27;20042;-82
2022/12/24 08:36:20;;;;;;;26.70;4.55;;;8.20;99.90;;;;;;5126801;27;20042;-83
2022/12/24 08:38:45;;;;;;;28.95;5.43;;;8.20;99.90;;;;;;5118859;27;20039;-82
2022/12/24 08:41:11;;;;;;;31.75;4.72;;;8.20;99.90;;;;;;5135222;27;20092;-82
2022/12/24 08:43:37;;;;;;;35.65;5.60;;;8.20;99.90;;;;;;5103651;28;20553;-84
2022/12/24 08:46:04;;;;;;;40.65;5.82;;;8.20;99.90;;;;;;5123219;28;20032;-82
2022/12/24 08:48:31;;;;;;;38.83;6.60;;;8.20;99.90;;;;;;5103244;28;20043;-83
2022/12/24 08:50:57;;;;;;;38.47;6.90;;;8.30;99.90;;;;;;5120124;28;20459;-82
2022/12/24 08:53:22;;;;;;;46.03;6.85;;;8.30;99.90;;;;;;5102387;28;20047;-83
2022/12/24 08:55:48;;;;;;;34.83;6.47;;;8.30;99.90;;;;;;5121907;28;20035;-83
2022/12/24 08:58:14;;;;;;;35.30;6.47;;;8.30;99.90;;;;;;5102545;28;20112;-83
2022/12/24 09:00:39;;;;;;;34.28;5.65;;;8.30;99.90;;;;;;5103385;27;20126;-82
2022/12/24 09:03:05;;;;;;;34.55;6.13;;;8.30;99.90;;;;;;5103060;28;20051;-84
2022/12/24 09:05:30;;;;;;;40.97;6.53;;;8.30;99.90;;;;;;5120906;28;20061;-83
2022/12/24 09:07:56;;;;;;;30.48;5.55;;;8.40;99.90;;;;;;5120304;27;20412;-83
2022/12/24 09:10:22;;;;;;;34.80;6.15;;;8.40;99.90;;;;;;5115498;27;20064;-81
2022/12/24 09:12:47;;;;;;;31.23;5.20;;;8.40;99.90;;;;;;5123018;27;20117;-82
2022/12/24 09:15:13;;;;;;;29.27;4.88;;;8.40;99.90;;;;;;5139385;27;20070;-83
2022/12/24 09:17:39;;;;;;;35.35;5.53;;;8.40;99.90;;;;;;5104689;28;20039;-82
2022/12/24 09:20:05;;;;;;;31.92;5.00;;;8.40;99.90;;;;;;5104148;28;20110;-83
2022/12/24 09:22:34;;;;;;;29.70;4.60;;;8.40;99.90;;;;;;5103867;28;20054;-82
2022/12/24 09:24:59;;;;;;;33.53;4.75;;;8.40;99.90;;;;;;5104327;28;20040;-83
2022/12/24 09:27:25;;;;;;;32.75;6.03;;;8.40;99.90;;;;;;5103979;28;20043;-83
2022/12/24 09:29:50;;;;;;;34.28;4.72;;;8.40;99.90;;;;;;5103331;28;20065;-82
2022/12/24 09:32:16;;;;;;;37.22;6.78;;;8.50;99.90;;;;;;5103962;28;20043;-83
2022/12/24 09:34:41;;;;;;;31.17;5.28;;;8.50;99.90;;;;;;5121488;27;20093;-83
2022/12/24 09:37:07;;;;;;;36.40;5.00;;;8.50;99.90;;;;;;5103378;28;20039;-81
2022/12/24 09:39:32;;;;;;;37.10;5.80;;;8.50;99.90;;;;;;5122665;27;20047;-83
2022/12/24 09:42:17;;;;;;;34.05;5.20;;;8.50;99.90;;;;;;5103252;27;20039;-82
2022/12/24 09:44:52;;;;;;;38.67;5.85;;;8.50;99.90;;;;;;5123558;27;20115;-83
2022/12/24 09:47:42;;;;;;;35.38;6.20;;;8.50;99.90;;;;;;5110580;27;20040;-82
2022/12/24 09:50:20;;;;;;;48.08;5.75;;;8.50;99.90;;;;;;5127378;27;20488;-83
2022/12/24 09:52:47;;;;;;;34.53;5.53;;;8.60;99.90;;;;;;5119472;27;20511;-83
2022/12/24 09:55:22;;;;;;;31.38;5.60;;;8.60;99.90;;;;;;5107089;27;20496;-84
2022/12/24 09:57:50;;;;;;;33.92;5.32;;;8.60;99.90;;;;;;5119651;27;20047;-81
2022/12/24 10:00:28;;;;;;;35.35;5.97;;;8.70;99.90;;;;;;5110603;27;20550;-82
2022/12/24 10:02:54;;;;;;;30.42;6.05;;;8.70;99.90;;;;;;5106808;27;20481;-82
2022/12/24 10:05:42;;;;;;;33.03;5.75;;;8.80;99.90;;;;;;5120361;27;20089;-81
2022/12/24 10:08:25;;;;;;;29.25;5.65;;;8.80;99.90;;;;;;5117780;27;20043;-81
2022/12/24 10:10:52;;;;;;;38.28;6.93;;;8.80;99.90;;;;;;5099907;28;20059;-81
2022/12/24 10:13:38;;;;;;;39.20;5.80;;;8.90;99.90;;;;;;5120541;27;20054;-82
2022/12/24 10:16:27;;;;;;;31.08;5.95;;;8.90;99.90;;;;;;5119677;28;20036;-80
2022/12/24 10:19:09;;;;;;;37.90;5.95;;;8.90;99.90;;;;;;5101280;28;20485;-83
2022/12/24 10:22:04;;;;;;;30.90;6.70;;;8.90;99.90;;;;;;5101719;27;20118;-83
2022/12/24 10:24:57;;;;;;;43.40;7.07;;;9.00;99.90;;;;;;5098224;28;20052;-83
2022/12/24 10:27:27;;;;;;;34.92;6.70;;;9.00;99.90;;;;;;5129036;27;20522;-83
2022/12/24 10:30:01;;;;;;;36.00;5.82;;;9.10;99.90;;;;;;5113381;27;20036;-84
2022/12/24 10:32:33;;;;;;;31.63;5.22;;;9.10;99.90;;;;;;5132997;27;20035;-82
2022/12/24 10:35:05;;;;;;;31.85;5.82;;;9.20;99.90;;;;;;5116242;27;20050;-82
2022/12/24 10:37:30;;;;;;;41.45;6.18;;;9.20;99.90;;;;;;5099558;27;20127;-82
2022/12/24 10:39:58;;;;;;;31.33;5.45;;;9.20;99.90;;;;;;5125669;27;20122;-84
2022/12/24 10:42:38;;;;;;;27.05;5.60;;;9.30;99.90;;;;;;5115871;27;20070;-83
2022/12/24 10:45:06;;;;;;;30.85;6.05;;;9.30;99.90;;;;;;5116521;28;20092;-82
2022/12/24 10:47:38;;;;;;;30.02;5.22;;;9.30;99.90;;;;;;5115855;28;20078;-82
2022/12/24 10:50:29;;;;;;;27.58;4.97;;;9.40;99.90;;;;;;5096940;28;20040;-84
2022/12/24 10:53:03;;;;;;;34.58;6.07;;;9.60;99.90;;;;;;5105075;27;20039;-84
2022/12/24 10:55:28;;;;;;;22.67;4.80;;;9.40;99.90;;;;;;5112500;27;20100;-85
2022/12/24 10:58:03;;;;;;;22.65;4.50;;;9.50;99.90;;;;;;5111590;27;20118;-84
2022/12/24 11:00:30;;;;;;;25.15;4.22;;;9.40;99.90;;;;;;5110343;27;20039;-84
2022/12/24 11:03:10;;;;;;;24.23;4.70;;;9.50;99.90;;;;;;5135402;27;20044;-82
2022/12/24 11:05:36;;;;;;;29.77;4.50;;;9.50;99.90;;;;;;5106283;27;20047;-83
2022/12/24 11:08:16;;;;;;;33.17;5.13;;;9.50;99.90;;;;;;5135564;27;20043;-82
2022/12/24 11:10:52;;;;;;;29.15;4.45;;;9.40;99.90;;;;;;5105205;28;20039;-83
2022/12/24 11:13:42;;;;;;;30.33;5.93;;;9.50;99.90;;;;;;5114184;27;20085;-80
2022/12/24 11:16:31;;;;;;;23.17;5.78;;;9.40;99.90;;;;;;5127117;27;20070;-81
2022/12/24 11:19:02;;;;;;;26.10;5.15;;;9.40;99.90;;;;;;5114872;27;20043;-83
2022/12/24 11:21:32;;;;;;;28.17;4.75;;;9.40;99.90;;;;;;5134699;27;20442;-83
2022/12/24 11:24:05;;;;;;;27.30;4.90;;;9.40;99.90;;;;;;5097124;28;20043;-82
2022/12/24 11:26:31;;;;;;;25.05;4.25;;;9.40;99.90;;;;;;5096942;28;20043;-83
2022/12/24 11:29:12;;;;;;;25.40;4.47;;;9.40;99.90;;;;;;5118043;27;20038;-83
2022/12/24 11:31:38;;;;;;;22.85;4.63;;;9.40;99.90;;;;;;5108972;27;20043;-84
2022/12/24 11:34:27;;;;;;;31.50;4.55;;;9.40;99.90;;;;;;5130849;27;20512;-84
2022/12/24 11:36:55;;;;;;;28.55;4.95;;;9.40;99.90;;;;;;5123543;27;20040;-82
2022/12/24 11:39:23;;;;;;;24.50;4.20;;;9.40;99.90;;;;;;5115019;27;20031;-82
2022/12/24 11:41:50;;;;;;;28.63;5.25;;;9.30;99.90;;;;;;5105026;27;20043;-83
2022/12/24 11:44:25;;;;;;;28.67;5.07;;;9.40;99.90;;;;;;5123374;27;20042;-83
2022/12/24 11:46:55;;;;;;;25.25;4.57;;;9.40;99.90;;;;;;5133373;27;20053;-82
2022/12/24 11:49:27;;;;;;;26.42;4.95;;;9.40;99.90;;;;;;5136179;27;20049;-81
2022/12/24 11:52:11;;;;;;;26.13;4.35;;;9.40;99.90;;;;;;5110022;27;20088;-84
2022/12/24 11:55:14;;;;;;;19.38;4.25;;;9.40;99.90;;;;;;5115848;27;20441;-84
2022/12/24 11:58:11;;;;;;;23.98;4.10;;;9.40;99.90;;;;;;5124810;27;20624;-83
2022/12/24 12:00:39;;;;;;;25.88;4.78;;;9.40;99.90;;;;;;5109011;27;20054;-84
2022/12/24 12:03:35;;;;;;;27.63;5.55;;;9.40;99.90;;;;;;5132746;27;20039;-80
2022/12/24 12:06:05;;;;;;;20.67;4.60;;;9.40;99.90;;;;;;5103185;27;20081;-84
2022/12/24 12:08:33;;;;;;;31.45;4.25;;;9.30;99.90;;;;;;5124285;27;20450;-82
2022/12/24 12:11:11;;;;;;;28.27;5.55;;;9.30;99.90;;;;;;5132662;27;20069;-83
2022/12/24 12:13:40;;;;;;;30.20;5.25;;;9.30;99.90;;;;;;5102261;28;20031;-84
2022/12/24 12:16:28;;;;;;;25.40;5.03;;;9.30;99.90;;;;;;5101443;28;20070;-82
2022/12/24 12:19:02;;;;;;;22.88;5.05;;;9.30;99.90;;;;;;5104719;28;20075;-83
2022/12/24 12:21:45;;;;;;;22.85;4.40;;;9.30;99.90;;;;;;5106010;27;20050;-83
2022/12/24 12:24:18;;;;;;;20.27;3.90;;;9.30;99.90;;;;;;5126252;28;20037;-82
2022/12/24 12:26:45;;;;;;;24.95;4.15;;;9.30;99.90;;;;;;5117637;28;20047;-84
2022/12/24 12:29:32;;;;;;;24.70;3.97;;;9.30;99.90;;;;;;5099900;28;20050;-84
2022/12/24 12:32:15;;;;;;;23.05;4.60;;;9.30;99.90;;;;;;5109176;28;20320;-84
2022/12/24 12:35:22;;;;;;;27.83;5.33;;;9.30;99.90;;;;;;5113503;28;20401;-83
2022/12/24 12:37:57;;;;;;;23.85;3.53;;;9.30;99.90;;;;;;5096733;28;20359;-83
2022/12/24 12:40:34;;;;;;;24.08;4.28;;;9.30;99.90;;;;;;5111639;28;20039;-82
2022/12/24 12:43:31;;;;;;;19.10;3.42;;;9.30;99.90;;;;;;5108704;28;20050;-81
2022/12/24 12:46:05;;;;;;;22.13;4.15;;;9.30;99.90;;;;;;5103818;27;20030;-82
2022/12/24 12:48:49;;;;;;;19.20;3.22;;;9.30;99.90;;;;;;5114378;28;20039;-82
2022/12/24 12:51:27;;;;;;;24.05;4.45;;;9.40;99.90;;;;;;5124694;28;20032;-82
2022/12/24 12:54:13;;;;;;;25.00;3.88;;;9.40;99.90;;;;;;5123076;28;20046;-82
2022/12/24 12:56:46;;;;;;;26.90;4.82;;;9.30;99.90;;;;;;5119595;28;20031;-82
2022/12/24 12:59:22;;;;;;;26.15;4.68;;;9.40;99.90;;;;;;5111005;28;20481;-83
2022/12/24 13:01:59;;;;;;;20.42;4.25;;;9.40;99.90;;;;;;5112204;28;20035;-84
2022/12/24 13:04:53;;;;;;;16.25;3.17;;;9.40;99.90;;;;;;5111763;28;20043;-82